Time;durP1;ratioP1;P1;durP2;ratioP2;P2;SDS_P1;SDS_P2;PMS_P1;PMS_P2;Temp;Humidity;BMP_temperature;BMP_pressure;BME280_temperature;BME280_humidity;BME280_pressure;Samples;Min_cycle;Max_cycle;Signal;HPM_P1;HPM_P2
2022/04/13 00:00:09;;;;;;;19.58;11.00;;;205.50;2252.80;;;;;;5033605;28;20028;-86
2022/04/13 00:02:35;;;;;;;19.13;11.10;;;205.50;2252.80;;;;;;5033843;28;20480;-86
2022/04/13 00:05:01;;;;;;;21.58;10.27;;;205.60;2252.80;;;;;;5034013;28;20087;-86
2022/04/13 00:07:28;;;;;;;19.80;11.48;;;205.70;2252.80;;;;;;5033855;28;20481;-86
2022/04/13 00:09:54;;;;;;;17.60;10.90;;;205.70;2252.80;;;;;;5033755;28;20025;-86
2022/04/13 00:12:20;;;;;;;;;;;205.70;2252.80;;;;;;5034312;28;20393;-86
2022/04/13 00:14:47;;;;;;;18.17;10.30;;;205.50;2252.80;;;;;;5033538;28;19909;-86
2022/04/13 00:17:12;;;;;;;18.50;10.48;;;205.40;2252.80;;;;;;5033738;28;20029;-87
2022/04/13 00:19:38;;;;;;;;;;;205.30;2252.80;;;;;;5033980;28;20473;-87
2022/04/13 00:22:04;;;;;;;23.08;10.75;;;205.20;2252.80;;;;;;5033537;28;19913;-87
2022/04/13 00:24:30;;;;;;;;;;;205.20;2252.80;;;;;;5033816;28;20033;-87
2022/04/13 00:26:57;;;;;;;21.60;10.48;;;205.20;2252.80;;;;;;5032850;28;19909;-86
2022/04/13 00:29:24;;;;;;;20.33;11.02;;;205.30;2252.80;;;;;;5033007;28;20037;-86
2022/04/13 00:31:51;;;;;;;19.23;10.55;;;205.30;2252.80;;;;;;5033045;28;20128;-87
2022/04/13 00:34:17;;;;;;;19.58;10.93;;;205.20;2252.80;;;;;;5032896;28;20029;-86
2022/04/13 00:36:42;;;;;;;;;;;205.30;2252.80;;;;;;5033349;28;20026;-86
2022/04/13 00:39:08;;;;;;;20.95;10.43;;;205.30;2252.80;;;;;;5033041;28;19905;-86
2022/04/13 00:41:34;;;;;;;;;;;205.30;2252.80;;;;;;5032889;28;20039;-86
2022/04/13 00:44:10;;;;;;;20.63;9.82;;;205.40;2252.80;;;;;;5032975;28;20323;-86
2022/04/13 00:46:37;;;;;;;21.10;9.77;;;205.30;2252.80;;;;;;5032846;28;20481;-87
2022/04/13 00:49:05;;;;;;;22.30;11.23;;;205.40;2252.80;;;;;;5032658;28;20033;-87
2022/04/13 00:51:31;;;;;;;18.02;10.43;;;205.40;2252.80;;;;;;5034523;28;20029;-87
2022/04/13 00:53:57;;;;;;;;;;;205.30;2252.80;;;;;;5036261;28;20024;-86
2022/04/13 00:56:25;;;;;;;17.85;9.52;;;205.20;2252.80;;;;;;5036001;28;19920;-86
2022/04/13 00:59:00;;;;;;;26.10;10.45;;;205.10;2252.80;;;;;;5035636;28;20116;-87
2022/04/13 01:01:26;;;;;;;24.70;11.75;;;205.10;2252.80;;;;;;5033531;28;20037;-86
2022/04/13 01:03:52;;;;;;;18.50;10.27;;;205.20;2252.80;;;;;;5035820;28;20469;-87
2022/04/13 01:06:19;;;;;;;17.90;10.77;;;205.30;2252.80;;;;;;5035542;28;20080;-86
2022/04/13 01:08:49;;;;;;;24.20;12.80;;;205.30;2252.80;;;;;;5035440;28;20036;-86
2022/04/13 01:11:16;;;;;;;18.88;10.00;;;205.10;2252.80;;;;;;5035242;28;20070;-85
2022/04/13 01:13:42;;;;;;;18.33;10.75;;;205.10;2252.80;;;;;;5034454;28;20029;-86
2022/04/13 01:16:08;;;;;;;;;;;205.20;2252.80;;;;;;5035997;28;20108;-87
2022/04/13 01:18:34;;;;;;;18.17;9.13;;;205.10;2252.80;;;;;;5035623;28;19927;-86
2022/04/13 01:21:00;;;;;;;16.67;10.00;;;205.10;2252.80;;;;;;5031719;28;20020;-86
2022/04/13 01:23:27;;;;;;;23.00;10.20;;;205.10;2252.80;;;;;;5033293;28;20029;-87
2022/04/13 01:25:54;;;;;;;15.82;10.40;;;205.10;2252.80;;;;;;5035425;28;20469;-86
2022/04/13 01:28:20;;;;;;;19.65;10.50;;;205.00;2252.80;;;;;;5035154;28;20040;-87
2022/04/13 01:30:46;;;;;;;20.77;11.43;;;205.00;2252.80;;;;;;5035647;28;20017;-87
2022/04/13 01:33:12;;;;;;;;;;;205.00;2252.80;;;;;;5035557;28;20032;-87
2022/04/13 01:35:38;;;;;;;26.10;13.52;;;204.90;2252.80;;;;;;5035310;28;19912;-86
2022/04/13 01:38:04;;;;;;;;;;;205.00;2252.80;;;;;;5035615;28;20471;-87
2022/04/13 01:40:30;;;;;;;27.70;15.65;;;205.10;2252.80;;;;;;5035311;28;19909;-86
2022/04/13 01:42:56;;;;;;;29.00;15.30;;;205.00;2252.80;;;;;;5034683;28;20028;-86
2022/04/13 01:45:21;;;;;;;;;;;205.00;2252.80;;;;;;5033092;28;20029;-86
2022/04/13 01:47:48;;;;;;;26.58;15.15;;;205.20;2252.80;;;;;;5034969;28;20020;-87
2022/04/13 01:50:16;;;;;;;25.92;14.77;;;205.20;2252.80;;;;;;5035336;28;20021;-87
2022/04/13 01:52:42;;;;;;;22.65;12.38;;;205.20;2252.80;;;;;;5031757;28;20144;-87
2022/04/13 01:55:09;;;;;;;24.52;14.57;;;205.20;2252.80;;;;;;5035173;28;20080;-87
2022/04/13 01:57:36;;;;;;;24.25;13.02;;;205.20;2252.80;;;;;;5034997;28;20033;-87
2022/04/13 02:00:02;;;;;;;23.65;12.95;;;205.00;2252.80;;;;;;5035004;28;20043;-86
2022/04/13 02:02:28;;;;;;;18.90;12.77;;;205.00;2252.80;;;;;;5035464;28;20048;-87
2022/04/13 02:04:54;;;;;;;;;;;205.00;2252.80;;;;;;5035833;28;20041;-86
2022/04/13 02:07:20;;;;;;;22.52;12.48;;;205.00;2252.80;;;;;;5035363;28;19913;-86
2022/04/13 02:09:45;;;;;;;;;;;205.10;2252.80;;;;;;5035269;28;20489;-87
2022/04/13 02:12:11;;;;;;;21.60;11.80;;;205.10;2252.80;;;;;;5035040;28;19904;-87
2022/04/13 02:14:37;;;;;;;;;;;205.20;2252.80;;;;;;5035218;28;20107;-86
2022/04/13 02:17:03;;;;;;;17.40;11.10;;;205.20;2252.80;;;;;;5034469;28;19909;-86
2022/04/13 02:19:28;;;;;;;;;;;204.90;2252.80;;;;;;5035296;28;20057;-87
2022/04/13 02:21:54;;;;;;;21.88;11.05;;;204.90;2252.80;;;;;;5034833;28;19991;-87
2022/04/13 02:24:19;;;;;;;;;;;204.90;2252.80;;;;;;5034986;28;20029;-86
2022/04/13 02:26:45;;;;;;;19.40;11.25;;;205.10;2252.80;;;;;;5034729;28;19912;-87
2022/04/13 02:29:11;;;;;;;;;;;205.20;2252.80;;;;;;5035131;28;20036;-86
2022/04/13 02:31:36;;;;;;;19.50;10.95;;;205.20;2252.80;;;;;;5034712;28;19909;-86
2022/04/13 02:34:04;;;;;;;;;;;205.00;2252.80;;;;;;5035139;28;20021;-86
2022/04/13 02:36:33;;;;;;;;;;;205.00;2252.80;;;;;;5037557;28;19905;-86
2022/04/13 02:38:59;;;;;;;18.73;10.45;;;205.00;2252.80;;;;;;5038350;28;19996;-86
2022/04/13 02:41:25;;;;;;;22.80;10.90;;;205.00;2252.80;;;;;;5035043;28;20031;-86
2022/04/13 02:43:50;;;;;;;;;;;204.90;2252.80;;;;;;5038552;28;20469;-86
2022/04/13 02:46:16;;;;;;;25.08;12.13;;;204.90;2252.80;;;;;;5037646;28;19909;-86
2022/04/13 02:48:42;;;;;;;;;;;205.00;2252.80;;;;;;5038174;28;20056;-86
2022/04/13 02:51:07;;;;;;;28.35;12.10;;;205.00;2252.80;;;;;;5038302;28;19905;-86
2022/04/13 02:53:34;;;;;;;;;;;205.10;2252.80;;;;;;5038290;28;20048;-86
2022/04/13 02:56:00;;;;;;;23.35;12.40;;;205.10;2252.80;;;;;;5038171;28;19908;-87
2022/04/13 02:58:25;;;;;;;;;;;205.00;2227.20;;;;;;5038368;28;20036;-86
2022/04/13 03:00:51;;;;;;;25.88;11.85;;;204.90;2227.20;;;;;;5038201;28;19904;-86
2022/04/13 03:03:17;;;;;;;;;;;205.00;2227.20;;;;;;5038510;28;20086;-86
2022/04/13 03:05:43;;;;;;;35.67;16.45;;;205.00;2252.80;;;;;;5063152;28;19922;-85
2022/04/13 03:08:09;;;;;;;31.17;16.42;;;205.00;2252.80;;;;;;5037622;28;20052;-86
2022/04/13 03:10:35;;;;;;;;;;;204.90;2252.80;;;;;;5038081;28;20469;-86
2022/04/13 03:13:00;;;;;;;24.67;13.88;;;204.80;2252.80;;;;;;5037215;28;19958;-86
2022/04/13 03:15:26;;;;;;;;;;;204.80;2252.80;;;;;;5037610;28;20024;-87
2022/04/13 03:17:52;;;;;;;27.35;14.82;;;180.10;2252.80;;;;;;5037237;28;19904;-86
2022/04/13 03:20:18;;;;;;;;;;;179.80;2252.80;;;;;;5055435;28;20028;-86
2022/04/13 03:22:44;;;;;;;26.67;13.75;;;179.70;2252.80;;;;;;5037489;28;19915;-86
2022/04/13 03:25:10;;;;;;;22.17;13.35;;;179.80;2252.80;;;;;;5055113;28;20047;-87
2022/04/13 03:27:37;;;;;;;;;;;179.70;2252.80;;;;;;5037774;28;20029;-87
2022/04/13 03:30:04;;;;;;;25.30;12.40;;;179.70;2252.80;;;;;;5037076;28;20307;-86
2022/04/13 03:32:40;;;;;;;25.15;12.82;;;179.60;2252.80;;;;;;5036835;28;20028;-87
2022/04/13 03:35:07;;;;;;;25.95;12.70;;;179.70;2252.80;;;;;;5037157;28;20028;-86
2022/04/13 03:37:33;;;;;;;27.15;12.88;;;179.70;2252.80;;;;;;5037370;28;20021;-87
2022/04/13 03:39:58;;;;;;;;;;;179.80;2252.80;;;;;;5055574;28;20024;-87
2022/04/13 03:42:24;;;;;;;26.27;11.88;;;179.70;2252.80;;;;;;5054326;28;19905;-86
2022/04/13 03:44:49;;;;;;;;;;;179.70;2252.80;;;;;;5055325;28;20028;-87
2022/04/13 03:47:15;;;;;;;17.88;10.32;;;179.70;2252.80;;;;;;5036508;28;19913;-87
2022/04/13 03:49:41;;;;;;;;;;;179.60;2252.80;;;;;;5036465;28;20052;-85
2022/04/13 03:52:07;;;;;;;18.23;9.82;;;179.60;2252.80;;;;;;5053892;28;19974;-86
2022/04/13 03:54:33;;;;;;;;;;;179.50;2252.80;;;;;;5036948;28;20441;-87
2022/04/13 03:56:58;;;;;;;22.25;9.77;;;179.40;2252.80;;;;;;5054425;28;19951;-86
2022/04/13 03:59:25;;;;;;;;;;;179.70;2227.20;;;;;;5037365;28;20116;-87
2022/04/13 04:01:51;;;;;;;15.45;7.28;;;179.70;2176.00;;;;;;5036443;28;19947;-86
2022/04/13 04:04:17;;;;;;;;;;;179.70;2124.80;;;;;;5054976;28;20504;-87
2022/04/13 04:06:42;;;;;;;15.80;8.18;;;179.70;2124.80;;;;;;5037070;28;19992;-87
2022/04/13 04:09:08;;;;;;;;;;;179.60;2124.80;;;;;;5036844;28;20029;-88
2022/04/13 04:11:34;;;;;;;14.35;8.07;;;179.60;2150.40;;;;;;5036759;28;19905;-86
2022/04/13 04:14:00;;;;;;;;;;;179.70;2099.20;;;;;;5036505;28;20021;-88
2022/04/13 04:16:26;;;;;;;18.38;9.40;;;179.80;2073.60;;;;;;5036793;28;19919;-86
2022/04/13 04:18:51;;;;;;;;;;;179.80;2048.00;;;;;;5036200;28;20013;-88
2022/04/13 04:21:17;;;;;;;13.98;8.00;;;179.80;2048.00;;;;;;5036634;28;20349;-87
2022/04/13 04:23:43;;;;;;;;;;;179.70;2073.60;;;;;;5036590;28;20029;-87
2022/04/13 04:26:09;;;;;;;16.35;7.53;;;179.70;2073.60;;;;;;5036397;28;19904;-86
2022/04/13 04:28:35;;;;;;;14.77;7.80;;;179.70;2073.60;;;;;;5053974;28;20037;-86
2022/04/13 04:31:01;;;;;;;;;;;179.70;2073.60;;;;;;5036750;28;20384;-87
2022/04/13 04:33:26;;;;;;;16.00;6.90;;;179.70;2073.60;;;;;;5036525;28;20352;-85
2022/04/13 04:35:52;;;;;;;;;;;179.70;2073.60;;;;;;5036398;28;20021;-87
2022/04/13 04:38:19;;;;;;;10.90;7.03;;;179.70;2073.60;;;;;;5035659;28;19904;-87
2022/04/13 04:40:45;;;;;;;22.15;8.13;;;179.60;2099.20;;;;;;5036069;28;20055;-87
2022/04/13 04:43:11;;;;;;;;;;;179.70;2099.20;;;;;;5036232;28;20412;-87
2022/04/13 04:45:37;;;;;;;13.15;7.70;;;179.70;2099.20;;;;;;5036165;28;20375;-87
2022/04/13 04:48:06;;;;;;;17.45;8.75;;;179.80;2099.20;;;;;;5036202;28;20167;-88
2022/04/13 04:50:33;;;;;;;15.98;9.00;;;179.60;2201.60;;;;;;5036317;28;20036;-91
2022/04/13 04:52:59;;;;;;;36.63;14.85;;;179.80;2252.80;;;;;;5035693;28;20071;-86
2022/04/13 04:55:25;;;;;;;;;;;179.50;2252.80;;;;;;5036527;28;20052;-87
2022/04/13 04:57:51;;;;;;;29.25;16.13;;;179.70;2227.20;;;;;;5035336;28;19909;-89
2022/04/13 05:00:20;;;;;;;22.92;12.85;;;179.90;2176.00;;;;;;5036105;28;20053;-86
2022/04/13 05:02:48;;;;;;;20.70;13.98;;;180.00;2176.00;;;;;;5035377;28;20028;-86
2022/04/13 05:05:14;;;;;;;20.00;9.88;;;180.10;2176.00;;;;;;5033807;28;20059;-86
2022/04/13 05:07:39;;;;;;;;;;;180.00;2227.20;;;;;;5036070;28;20021;-86
2022/04/13 05:10:06;;;;;;;9.77;6.07;;;180.00;2176.00;;;;;;5035613;28;19962;-85
2022/04/13 05:12:42;;;;;;;12.30;7.35;;;180.00;2227.20;;;;;;5035427;28;20021;-87
2022/04/13 05:15:08;;;;;;;9.82;5.57;;;204.80;2201.60;;;;;;5035385;28;20021;-85
2022/04/13 05:17:34;;;;;;;11.43;7.05;;;180.00;2252.80;;;;;;5057640;28;20465;-85
2022/04/13 05:20:00;;;;;;;;;;;179.80;2252.80;;;;;;5035511;28;20032;-85
2022/04/13 05:22:25;;;;;;;17.35;7.68;;;179.80;2252.80;;;;;;5035427;28;19909;-85
2022/04/13 05:24:51;;;;;;;;;;;179.80;2252.80;;;;;;5035356;28;20028;-83
2022/04/13 05:27:16;;;;;;;11.27;6.93;;;179.80;2252.80;;;;;;5034269;28;19963;-79
2022/04/13 05:29:42;;;;;;;;;;;179.90;2252.80;;;;;;5052294;28;20025;-86
2022/04/13 05:32:08;;;;;;;15.93;6.97;;;180.00;2252.80;;;;;;5034776;28;19912;-85
2022/04/13 05:34:33;;;;;;;;;;;204.80;2252.80;;;;;;5034784;28;20040;-82
2022/04/13 05:36:59;;;;;;;35.70;24.67;;;205.00;2252.80;;;;;;5034953;28;19975;-82
2022/04/13 05:39:25;;;;;;;;;;;205.20;2252.80;;;;;;5034684;28;20051;-80
2022/04/13 05:41:51;;;;;;;9.23;5.95;;;205.30;2252.80;;;;;;5052121;28;20323;-86
2022/04/13 05:44:16;;;;;;;;;;;205.40;2252.80;;;;;;5035178;28;20029;-80
2022/04/13 05:46:42;;;;;;;9.07;5.65;;;205.40;2252.80;;;;;;5034065;28;19905;-79
2022/04/13 05:49:08;;;;;;;;;;;205.60;2227.20;;;;;;5034436;28;20527;-81
2022/04/13 05:51:33;;;;;;;10.77;7.07;;;205.70;2201.60;;;;;;5033635;28;19913;-81
2022/04/13 05:53:59;;;;;;;;;;;230.40;2252.80;;;;;;5052493;28;20041;-80
2022/04/13 05:56:26;;;;;;;9.25;6.38;;;230.40;2252.80;;;;;;5034282;28;19909;-80
2022/04/13 05:58:52;;;;;;;15.88;6.05;;;230.40;2252.80;;;;;;5034207;28;20040;-79
2022/04/13 06:01:17;;;;;;;;;;;230.40;2252.80;;;;;;5032122;28;20401;-80
2022/04/13 06:03:43;;;;;;;11.70;6.70;;;230.40;2252.80;;;;;;5034630;28;19935;-83
2022/04/13 06:06:09;;;;;;;;;;;230.60;2227.20;;;;;;5034705;28;20028;-83
2022/04/13 06:08:35;;;;;;;14.52;7.60;;;230.70;2252.80;;;;;;5034353;28;19912;-79
2022/04/13 06:11:00;;;;;;;;;;;230.70;2252.80;;;;;;5038094;28;20116;-79
2022/04/13 06:13:26;;;;;;;12.02;6.43;;;230.80;2252.80;;;;;;5037442;28;20356;-79
2022/04/13 06:15:51;;;;;;;;;;;230.90;2252.80;;;;;;5038214;28;20025;-78
2022/04/13 06:18:17;;;;;;;11.57;6.05;;;231.10;2176.00;;;;;;5055345;28;19901;-85
2022/04/13 06:20:43;;;;;;;;;;;231.20;2176.00;;;;;;5038534;28;20029;-80
2022/04/13 06:23:09;;;;;;;10.75;5.93;;;256.00;2176.00;;;;;;5037277;28;20241;-82
2022/04/13 06:25:34;;;;;;;;;;;256.10;2124.80;;;;;;5038649;28;20451;-85
2022/04/13 06:28:00;;;;;;;9.68;6.35;;;256.20;2124.80;;;;;;5038028;28;20008;-82
2022/04/13 06:30:25;;;;;;;;;;;256.40;2073.60;;;;;;5038083;28;20017;-80
2022/04/13 06:32:51;;;;;;;10.30;6.72;;;256.50;2073.60;;;;;;5037154;28;20466;-79
2022/04/13 06:35:18;;;;;;;;;;;256.60;2099.20;;;;;;5038279;28;20397;-82
2022/04/13 06:37:45;;;;;;;12.03;6.13;;;256.70;2150.40;;;;;;5037386;28;19916;-81
2022/04/13 06:40:12;;;;;;;12.80;7.38;;;256.90;2150.40;;;;;;5036772;28;20100;-83
2022/04/13 06:42:39;;;;;;;19.02;7.30;;;281.60;2124.80;;;;;;5037845;28;20025;-82
2022/04/13 06:45:07;;;;;;;12.88;7.60;;;281.70;2124.80;;;;;;5037554;28;20044;-80
2022/04/13 06:47:33;;;;;;;13.32;7.30;;;281.90;2073.60;;;;;;5018434;28;20030;-85
2022/04/13 06:49:58;;;;;;;20.42;8.18;;;282.00;2022.40;;;;;;5036136;28;20026;-83
2022/04/13 06:52:24;;;;;;;13.55;7.65;;;282.10;2073.60;;;;;;5036145;28;20053;-83
2022/04/13 06:54:50;;;;;;;11.50;6.80;;;282.10;2099.20;;;;;;5035832;28;20026;-83
2022/04/13 06:57:16;;;;;;;15.02;7.57;;;282.10;2048.00;;;;;;5036024;28;20036;-81
2022/04/13 06:59:42;;;;;;;12.10;6.80;;;282.30;2048.00;;;;;;5035538;28;20026;-82
2022/04/13 07:02:10;;;;;;;16.05;6.97;;;282.50;2099.20;;;;;;5017850;28;20025;-82
2022/04/13 07:04:37;;;;;;;14.98;7.53;;;307.30;2022.40;;;;;;5035948;28;20022;-83
2022/04/13 07:07:03;;;;;;;10.10;6.75;;;307.30;1971.20;;;;;;5035328;28;20041;-82
2022/04/13 07:09:29;;;;;;;11.05;6.40;;;307.40;2073.60;;;;;;5018331;28;20033;-82
2022/04/13 07:11:55;;;;;;;;;;;307.60;1945.60;;;;;;5018407;28;20033;-79
2022/04/13 07:14:20;;;;;;;12.80;7.50;;;307.80;1945.60;;;;;;5017130;28;19959;-80
2022/04/13 07:16:46;;;;;;;14.13;7.15;;;308.00;1945.60;;;;;;5017577;28;20029;-82
2022/04/13 07:19:12;;;;;;;11.25;6.35;;;308.10;1945.60;;;;;;5035660;28;20032;-80
2022/04/13 07:21:38;;;;;;;13.18;6.60;;;332.80;1971.20;;;;;;5033942;28;20038;-77
2022/04/13 07:24:03;;;;;;;;;;;333.00;1894.40;;;;;;5035358;28;20057;-79
2022/04/13 07:26:29;;;;;;;10.20;5.45;;;333.20;1894.40;;;;;;5016930;28;19912;-80
2022/04/13 07:28:55;;;;;;;;;;;333.10;1817.60;;;;;;5035116;28;20095;-81
2022/04/13 07:31:20;;;;;;;14.40;6.70;;;333.30;1817.60;;;;;;5017929;28;20336;-79
2022/04/13 07:33:46;;;;;;;9.55;5.90;;;333.40;1817.60;;;;;;5017149;28;20029;-81
2022/04/13 07:36:12;;;;;;;11.10;6.93;;;333.50;1792.00;;;;;;5017259;28;20424;-84
2022/04/13 07:38:38;;;;;;;15.32;6.70;;;333.70;1792.00;;;;;;5016658;28;20030;-77
2022/04/13 07:41:04;;;;;;;9.65;6.13;;;333.70;1792.00;;;;;;5017272;28;20032;-81
2022/04/13 07:43:30;;;;;;;10.80;6.25;;;358.40;1715.20;;;;;;5028847;28;20033;-86
2022/04/13 07:45:56;;;;;;;12.20;7.18;;;358.60;1792.00;;;;;;5036252;28;20123;-79
2022/04/13 07:48:22;;;;;;;10.82;5.28;;;358.70;1740.80;;;;;;5036230;28;20124;-80
2022/04/13 07:50:47;;;;;;;7.40;5.30;;;358.80;1689.60;;;;;;5036726;28;20041;-82
2022/04/13 07:53:14;;;;;;;22.92;6.85;;;358.80;1664.00;;;;;;5036241;28;20057;-79
2022/04/13 07:55:40;;;;;;;8.90;4.93;;;358.90;1664.00;;;;;;5054159;28;20025;-78
2022/04/13 07:58:06;;;;;;;10.63;5.50;;;359.00;1612.80;;;;;;5036051;28;20119;-78
2022/04/13 08:00:32;;;;;;;11.40;5.50;;;359.10;1612.80;;;;;;5036279;28;20032;-80
2022/04/13 08:02:58;;;;;;;7.78;5.65;;;359.20;1561.60;;;;;;5036495;28;20110;-82
2022/04/13 08:05:24;;;;;;;9.55;5.07;;;359.30;1561.60;;;;;;5035844;28;20059;-79
2022/04/13 08:07:50;;;;;;;8.60;4.70;;;359.30;1561.60;;;;;;5053493;28;20032;-78
2022/04/13 08:10:16;;;;;;;7.28;4.78;;;384.00;1587.20;;;;;;5053378;28;20029;-77
2022/04/13 08:12:42;;;;;;;16.90;4.55;;;384.10;1561.60;;;;;;5035032;28;20424;-77
2022/04/13 08:15:09;;;;;;;6.43;3.83;;;384.30;1587.20;;;;;;5035189;28;20029;-77
2022/04/13 08:17:38;;;;;;;18.15;5.85;;;384.30;1510.40;;;;;;5053177;28;20025;-77
2022/04/13 08:20:06;;;;;;;6.38;4.15;;;384.40;1536.00;;;;;;5035114;28;20490;-76
2022/04/13 08:22:32;;;;;;;6.13;3.70;;;384.20;1459.20;;;;;;5034637;28;20029;-77
2022/04/13 08:24:57;;;;;;;7.78;4.10;;;384.40;1459.20;;;;;;5035330;28;20083;-77
2022/04/13 08:27:23;;;;;;;9.05;3.88;;;384.40;1433.60;;;;;;5035210;28;20095;-76
2022/04/13 08:29:49;;;;;;;6.93;3.60;;;384.50;1408.00;;;;;;5053528;28;20021;-77
2022/04/13 08:32:19;;;;;;;8.45;3.58;;;384.70;1433.60;;;;;;5034822;28;20469;-78
2022/04/13 08:34:48;;;;;;;6.45;3.60;;;384.60;1382.40;;;;;;5034949;28;20025;-79
2022/04/13 08:37:13;;;;;;;8.18;3.60;;;384.70;1356.80;;;;;;5035103;28;20025;-80
2022/04/13 08:39:40;;;;;;;8.45;3.38;;;409.60;1408.00;;;;;;5035560;28;20454;-77
2022/04/13 08:42:08;;;;;;;6.68;3.25;;;409.60;1382.40;;;;;;5034573;28;20025;-77
2022/04/13 08:44:39;;;;;;;7.38;3.15;;;409.60;1382.40;;;;;;5031768;28;20025;-76
2022/04/13 08:47:12;;;;;;;7.90;3.22;;;409.70;1356.80;;;;;;5034324;28;20025;-77
2022/04/13 08:49:44;;;;;;;5.50;2.97;;;409.70;1356.80;;;;;;5032556;28;20075;-77
2022/04/13 08:52:14;;;;;;;6.88;3.10;;;409.70;1305.60;;;;;;5034899;28;20051;-78
2022/04/13 08:55:14;;;;;;;5.97;3.50;;;409.80;1331.20;;;;;;5052671;28;20036;-77
2022/04/13 08:57:54;;;;;;;7.50;2.90;;;409.80;1305.60;;;;;;5034956;28;20044;-78
2022/04/13 09:00:23;;;;;;;14.55;3.47;;;409.90;1331.20;;;;;;5035077;28;20059;-78
2022/04/13 09:02:56;;;;;;;13.93;3.55;;;409.90;1305.60;;;;;;5034943;28;20481;-78
2022/04/13 09:05:27;;;;;;;4.43;2.63;;;410.00;1305.60;;;;;;5034619;28;20111;-78
2022/04/13 09:08:12;;;;;;;5.25;2.72;;;410.00;1305.60;;;;;;5035028;28;20033;-78
2022/04/13 09:10:39;;;;;;;5.53;2.55;;;410.00;1280.00;;;;;;5052839;28;20035;-79
2022/04/13 09:13:09;;;;;;;5.78;3.00;;;410.10;1280.00;;;;;;5034841;28;20028;-77
2022/04/13 09:15:40;;;;;;;7.38;3.30;;;410.10;1254.40;;;;;;5034902;28;20025;-77
2022/04/13 09:18:10;;;;;;;11.80;4.80;;;410.10;1254.40;;;;;;5034370;28;20021;-77
2022/04/13 09:20:37;;;;;;;8.70;3.72;;;410.30;1254.40;;;;;;5052587;28;20056;-77
2022/04/13 09:23:03;;;;;;;5.88;2.65;;;410.50;1203.20;;;;;;5034236;28;20388;-77
2022/04/13 09:25:31;;;;;;;6.53;2.90;;;435.20;1228.80;;;;;;5052296;28;20031;-77
2022/04/13 09:27:59;;;;;;;7.72;2.70;;;435.30;1177.60;;;;;;5052442;28;20025;-77
2022/04/13 09:30:25;;;;;;;11.75;4.05;;;435.30;1177.60;;;;;;5034405;28;20108;-77
2022/04/13 09:32:51;;;;;;;7.80;2.40;;;435.40;1100.80;;;;;;5052326;28;20029;-76
2022/04/13 09:35:19;;;;;;;4.43;2.30;;;435.50;1100.80;;;;;;5033507;28;20025;-78
2022/04/13 09:37:44;;;;;;;8.15;2.33;;;435.50;1126.40;;;;;;5052269;28;20028;-77
2022/04/13 09:40:29;;;;;;;5.57;2.72;;;435.70;1126.40;;;;;;5034188;28;20021;-77
2022/04/13 09:43:10;;;;;;;4.03;2.47;;;435.80;1100.80;;;;;;5034056;28;20021;-77
2022/04/13 09:45:39;;;;;;;4.70;2.33;;;435.90;1100.80;;;;;;5054710;28;20029;-77
2022/04/13 09:48:06;;;;;;;5.50;2.75;;;436.00;1049.60;;;;;;5037754;28;20033;-76
2022/04/13 09:50:33;;;;;;;6.20;2.60;;;436.10;1049.60;;;;;;5038194;28;20107;-77
2022/04/13 09:53:03;;;;;;;3.65;2.00;;;460.80;1075.20;;;;;;5055716;28;20045;-76
2022/04/13 09:55:30;;;;;;;6.20;2.17;;;460.90;1049.60;;;;;;5056135;28;20029;-79
2022/04/13 09:58:08;;;;;;;5.90;2.63;;;460.90;1049.60;;;;;;5038408;28;20167;-76
2022/04/13 10:00:35;;;;;;;6.82;2.80;;;461.10;1024.00;;;;;;5037742;28;20413;-78
2022/04/13 10:03:16;;;;;;;8.75;2.88;;;461.00;998.40;;;;;;5038363;28;20021;-79
2022/04/13 10:05:52;;;;;;;8.60;2.33;;;461.30;1024.00;;;;;;5038405;28;20029;-78
2022/04/13 10:08:23;;;;;;;8.35;2.78;;;461.50;998.40;;;;;;5055953;28;20032;-79
2022/04/13 10:10:56;;;;;;;5.28;2.47;;;461.50;1049.60;;;;;;5037598;28;20036;-79
2022/04/13 10:13:35;;;;;;;5.00;2.35;;;461.70;1024.00;;;;;;5038078;28;20025;-79
2022/04/13 10:16:12;;;;;;;2.95;1.98;;;486.60;972.80;;;;;;5037944;28;20017;-79
2022/04/13 10:18:57;;;;;;;4.10;2.30;;;486.60;998.40;;;;;;5038105;28;20040;-79
2022/04/13 10:21:51;;;;;;;5.53;2.08;;;486.80;972.80;;;;;;5037574;28;20028;-79
2022/04/13 10:24:31;;;;;;;16.92;8.35;;;486.70;921.60;;;;;;5055527;28;20025;-79
2022/04/13 10:27:30;;;;;;;5.53;2.60;;;486.90;921.60;;;;;;5037575;28;20388;-80
2022/04/13 10:30:06;;;;;;;3.42;2.33;;;486.90;870.40;;;;;;5033434;28;20039;-79
2022/04/13 10:32:31;;;;;;;;;;;487.10;947.20;;;;;;5038253;28;20528;-79
2022/04/13 10:34:59;;;;;;;7.27;2.20;;;487.30;921.60;;;;;;5037320;28;19905;-79
2022/04/13 10:37:27;;;;;;;20.30;3.97;;;512.00;844.80;;;;;;5037316;28;20502;-79
2022/04/13 10:39:53;;;;;;;5.15;2.42;;;512.20;921.60;;;;;;5055264;28;20023;-80
2022/04/13 10:42:20;;;;;;;6.93;2.03;;;512.50;921.60;;;;;;5038116;28;20104;-80
2022/04/13 10:45:03;;;;;;;5.07;2.72;;;512.60;870.40;;;;;;5037479;28;20025;-81
2022/04/13 10:47:58;;;;;;;3.60;2.13;;;512.60;870.40;;;;;;5037256;28;20044;-79
2022/04/13 10:50:49;;;;;;;7.25;2.30;;;512.20;844.80;;;;;;5037182;28;20055;-79
2022/04/13 10:53:25;;;;;;;5.95;2.53;;;512.60;921.60;;;;;;5054989;28;20519;-80
2022/04/13 10:55:59;;;;;;;8.00;2.30;;;512.90;870.40;;;;;;5036060;28;20061;-83
2022/04/13 10:58:46;;;;;;;5.82;2.60;;;512.90;870.40;;;;;;5037406;28;20025;-83
2022/04/13 11:01:15;;;;;;;4.25;2.38;;;512.90;870.40;;;;;;5037994;28;20038;-82
2022/04/13 11:03:41;;;;;;;3.72;2.35;;;512.90;819.20;;;;;;5055545;28;20109;-82
2022/04/13 11:06:09;;;;;;;3.65;2.15;;;537.70;870.40;;;;;;5038011;28;20079;-81
2022/04/13 11:09:07;;;;;;;4.25;2.33;;;537.90;870.40;;;;;;5037197;28;20043;-82
2022/04/13 11:11:36;;;;;;;3.63;2.13;;;538.00;844.80;;;;;;5036884;28;20175;-79
2022/04/13 11:14:17;;;;;;;4.63;2.20;;;537.70;896.00;;;;;;5037254;28;20116;-81
2022/04/13 11:16:43;;;;;;;4.85;2.28;;;537.60;870.40;;;;;;5037396;28;20366;-82
2022/04/13 11:19:09;;;;;;;9.68;2.38;;;537.80;870.40;;;;;;5038456;28;20036;-80
2022/04/13 11:21:54;;;;;;;4.35;2.28;;;537.90;819.20;;;;;;5054875;28;20020;-80
2022/04/13 11:24:33;;;;;;;7.43;2.20;;;538.00;844.80;;;;;;5036855;28;20078;-80
2022/04/13 11:27:00;;;;;;;9.00;2.22;;;538.10;819.20;;;;;;5037171;28;20056;-82
2022/04/13 11:29:33;;;;;;;13.35;2.53;;;537.90;793.60;;;;;;5036959;28;20033;-80
2022/04/13 11:32:10;;;;;;;3.75;2.00;;;538.10;819.20;;;;;;5036033;28;20033;-82
2022/04/13 11:34:45;;;;;;;2.88;1.80;;;;;;;;;;5036700;28;20477;-82
2022/04/13 11:37:11;;;;;;;4.83;2.20;;;538.30;819.20;;;;;;5036472;28;20457;-82
2022/04/13 11:39:44;;;;;;;4.70;2.05;;;538.50;793.60;;;;;;5035731;28;20270;-79
2022/04/13 11:42:24;;;;;;;4.55;2.22;;;538.50;793.60;;;;;;5036073;28;20025;-79
2022/04/13 11:45:14;;;;;;;3.03;2.22;;;538.50;768.00;;;;;;5035806;28;20029;-80
2022/04/13 11:47:44;;;;;;;2.92;1.65;;;538.40;768.00;;;;;;5033239;28;20032;-78
2022/04/13 11:50:12;;;;;;;4.65;1.92;;;563.20;793.60;;;;;;5036045;28;20497;-78
2022/04/13 11:53:00;;;;;;;4.97;2.13;;;538.40;768.00;;;;;;5035913;28;20049;-78
2022/04/13 11:55:39;;;;;;;5.57;1.98;;;538.10;793.60;;;;;;5035862;28;20036;-78
2022/04/13 11:58:07;;;;;;;5.70;2.63;;;538.50;768.00;;;;;;5036190;28;20033;-76
2022/04/13 12:00:57;;;;;;;5.13;2.45;;;538.50;793.60;;;;;;5035919;28;20036;-79
2022/04/13 12:03:23;;;;;;;3.05;1.65;;;563.20;819.20;;;;;;5053634;28;20420;-79
2022/04/13 12:05:52;;;;;;;4.10;1.67;;;563.20;768.00;;;;;;5036678;28;20025;-82
2022/04/13 12:08:41;;;;;;;4.10;1.80;;;563.30;819.20;;;;;;5035772;28;20024;-83
2022/04/13 12:11:19;;;;;;;7.10;2.22;;;563.50;819.20;;;;;;5035354;28;20029;-81
2022/04/13 12:13:52;;;;;;;3.30;1.98;;;563.50;768.00;;;;;;5034048;28;20485;-80
2022/04/13 12:16:36;;;;;;;5.90;2.53;;;563.50;768.00;;;;;;5016001;28;20579;-81
2022/04/13 12:19:04;;;;;;;4.43;2.70;;;563.60;793.60;;;;;;5033749;28;20025;-81
2022/04/13 12:21:32;;;;;;;6.10;2.08;;;563.50;793.60;;;;;;5026016;28;20032;-80
2022/04/13 12:24:02;;;;;;;11.55;2.35;;;563.60;793.60;;;;;;5035292;28;20029;-80
2022/04/13 12:26:39;;;;;;;3.97;1.98;;;563.40;819.20;;;;;;5035689;28;20458;-81
2022/04/13 12:29:22;;;;;;;6.03;2.05;;;563.40;768.00;;;;;;5035395;28;20562;-80
2022/04/13 12:31:49;;;;;;;4.60;2.20;;;563.20;793.60;;;;;;5035068;28;20449;-80
2022/04/13 12:34:17;;;;;;;6.50;2.25;;;538.50;768.00;;;;;;5035192;28;20033;-81